Time;durP1;ratioP1;P1;durP2;ratioP2;P2;SDS_P1;SDS_P2;PMS_P1;PMS_P2;Temp;Humidity;BMP_temperature;BMP_pressure;BME280_temperature;BME280_humidity;BME280_pressure;Samples;Min_cycle;Max_cycle;Signal;HPM_P1;HPM_P2
2024/02/28 00:00:38;;;;;;;35.80;18.30;;;5.90;99.90;;;6.47;100.00;98253.53;4982526;28;20468;-77
2024/02/28 00:03:07;;;;;;;38.72;18.70;;;5.90;99.90;;;6.38;100.00;98259.69;4981581;28;20472;-78
2024/02/28 00:05:35;;;;;;;38.77;18.73;;;5.90;99.90;;;6.32;100.00;98249.91;4982868;28;20256;-77
2024/02/28 00:08:04;;;;;;;33.47;18.15;;;5.80;99.90;;;6.25;100.00;98251.47;4981865;28;21037;-78
2024/02/28 00:10:33;;;;;;;33.80;17.67;;;5.70;99.90;;;6.25;100.00;98253.28;4982385;28;20204;-78
2024/02/28 00:13:02;;;;;;;35.27;18.50;;;5.60;99.90;;;6.27;100.00;98254.75;4981521;28;20518;-77
2024/02/28 00:15:30;;;;;;;35.17;18.77;;;5.60;99.90;;;6.22;100.00;98249.19;4981699;28;20460;-77
2024/02/28 00:18:00;;;;;;;39.20;19.50;;;5.60;99.90;;;6.17;100.00;98251.47;4981349;28;21026;-77
2024/02/28 00:20:29;;;;;;;34.63;18.15;;;5.60;99.90;;;6.10;100.00;98249.63;4981297;28;20547;-78
2024/02/28 00:22:57;;;;;;;33.83;19.00;;;5.50;99.90;;;6.06;100.00;98262.09;4983140;28;20240;-77
2024/02/28 00:25:26;;;;;;;32.43;18.20;;;5.40;99.90;;;6.10;100.00;98260.81;4981303;28;20954;-77
2024/02/28 00:27:54;;;;;;;35.07;19.13;;;5.60;99.90;;;6.08;100.00;98266.16;4981162;28;20521;-78
2024/02/28 00:30:23;;;;;;;39.00;18.77;;;5.50;99.90;;;6.10;100.00;98266.03;4981141;28;20550;-78
2024/02/28 00:32:51;;;;;;;33.77;19.40;;;5.50;99.90;;;6.05;100.00;98270.84;4982096;28;20699;-78
2024/02/28 00:35:21;;;;;;;38.17;18.70;;;5.50;99.90;;;6.06;100.00;98272.47;4980936;28;20471;-77
2024/02/28 00:37:49;;;;;;;36.50;18.30;;;5.50;99.90;;;5.97;100.00;98271.59;4981958;28;20204;-78
2024/02/28 00:40:18;;;;;;;40.78;19.40;;;5.50;99.90;;;6.02;100.00;98271.16;4982833;28;20470;-78
2024/02/28 00:42:46;;;;;;;37.57;19.17;;;5.40;99.90;;;6.05;100.00;98270.84;4983347;28;20607;-78
2024/02/28 00:45:15;;;;;;;35.20;18.47;;;5.50;99.90;;;6.06;100.00;98277.66;4981440;28;20502;-78
2024/02/28 00:47:44;;;;;;;37.50;18.50;;;5.40;99.90;;;6.06;100.00;98275.91;4982151;28;20460;-77
2024/02/28 00:50:12;;;;;;;37.90;18.85;;;5.40;99.90;;;5.91;100.00;98274.81;4980948;28;20478;-78
2024/02/28 00:52:42;;;;;;;34.70;18.37;;;5.30;99.90;;;5.90;100.00;98280.97;4981600;28;20211;-78
2024/02/28 00:55:10;;;;;;;35.20;18.33;;;5.40;99.90;;;5.91;100.00;98286.97;4981290;28;20977;-77
2024/02/28 00:57:39;;;;;;;38.00;19.20;;;5.30;99.90;;;5.88;100.00;98282.09;4979266;28;20458;-77
2024/02/28 01:00:10;;;;;;;32.60;17.83;;;5.30;99.90;;;5.90;100.00;98288.75;4980245;28;20467;-77
2024/02/28 01:02:38;;;;;;;32.97;17.67;;;5.30;99.90;;;5.98;100.00;98280.19;4980840;28;20468;-76
2024/02/28 01:05:08;;;;;;;34.20;17.88;;;5.40;99.90;;;6.03;100.00;98285.75;4984254;28;20706;-77
2024/02/28 01:07:36;;;;;;;30.90;17.33;;;5.40;99.90;;;5.97;100.00;98284.56;4984438;28;20295;-78
2024/02/28 01:10:08;;;;;;;38.87;19.60;;;5.30;99.90;;;6.03;100.00;98298.75;4985700;28;22151;-78
2024/02/28 01:12:36;;;;;;;35.67;18.27;;;5.40;99.90;;;6.00;100.00;98291.25;4985533;28;20885;-77
2024/02/28 01:15:06;;;;;;;32.53;18.10;;;5.50;99.90;;;6.01;100.00;98292.88;4984770;28;20478;-77
2024/02/28 01:17:34;;;;;;;39.80;20.10;;;5.50;99.90;;;6.04;100.00;98292.56;4985486;28;20587;-78
2024/02/28 01:20:03;;;;;;;37.90;18.10;;;5.50;99.90;;;6.05;100.00;98300.22;4985466;28;20719;-78
2024/02/28 01:22:32;;;;;;;38.43;18.37;;;5.50;99.90;;;6.06;100.00;98298.44;4984837;28;20467;-78
2024/02/28 01:25:00;;;;;;;37.63;17.70;;;5.50;99.90;;;6.07;100.00;98298.25;4984646;28;20467;-78
2024/02/28 01:27:30;;;;;;;38.43;18.23;;;5.40;99.90;;;6.13;100.00;98301.22;4985931;28;21071;-78
2024/02/28 01:29:59;;;;;;;33.03;17.33;;;5.40;99.90;;;6.06;100.00;98298.44;4984097;28;20803;-77
2024/02/28 01:32:27;;;;;;;36.73;18.63;;;5.50;99.90;;;5.94;100.00;98297.03;4985751;28;20520;-78
2024/02/28 01:34:56;;;;;;;35.60;17.93;;;5.20;99.90;;;5.94;100.00;98297.03;4984721;28;20485;-77
2024/02/28 01:37:25;;;;;;;39.30;19.00;;;5.20;99.90;;;5.99;100.00;98298.22;4983634;28;20462;-77
2024/02/28 01:39:53;;;;;;;32.87;17.50;;;5.30;99.90;;;6.02;100.00;98300.53;4984039;28;20474;-77
2024/02/28 01:42:22;;;;;;;31.80;17.90;;;5.30;99.90;;;6.04;100.00;98292.56;4986317;28;20554;-77
2024/02/28 01:44:52;;;;;;;38.00;18.20;;;5.30;99.90;;;6.01;100.00;98293.69;4982595;28;20487;-78
2024/02/28 01:47:20;;;;;;;43.83;17.53;;;5.30;99.90;;;6.07;100.00;98293.06;4984709;28;20495;-77
2024/02/28 01:49:50;;;;;;;34.88;17.65;;;5.30;99.90;;;6.15;100.00;98294.09;4983737;28;20469;-77
2024/02/28 01:52:19;;;;;;;35.13;18.07;;;5.40;99.90;;;6.12;100.00;98290.03;4983964;28;20708;-77
2024/02/28 01:54:48;;;;;;;32.23;17.60;;;5.40;99.90;;;6.10;100.00;98291.16;4982353;28;20549;-77
2024/02/28 01:57:17;;;;;;;34.63;17.73;;;5.40;99.90;;;6.10;100.00;98297.16;4983594;28;21195;-77
2024/02/28 01:59:47;;;;;;;34.07;17.27;;;5.30;99.90;;;6.11;100.00;98285.00;4984088;28;21170;-78
2024/02/28 02:02:17;;;;;;;31.83;16.23;;;5.30;99.90;;;6.08;100.00;98283.50;4984080;28;20688;-78
2024/02/28 02:04:45;;;;;;;29.90;17.23;;;5.40;99.90;;;6.09;100.00;98285.16;4983363;28;20213;-77
2024/02/28 02:07:14;;;;;;;35.50;17.40;;;5.30;99.90;;;6.13;100.00;98289.06;4984068;28;20529;-77
2024/02/28 02:09:43;;;;;;;32.37;17.27;;;5.30;99.90;;;6.06;100.00;98290.66;4985023;28;20817;-78
2024/02/28 02:12:12;;;;;;;43.30;19.25;;;5.40;99.90;;;5.96;100.00;98287.34;4984679;28;20473;-78
2024/02/28 02:14:40;;;;;;;37.63;16.67;;;5.20;99.90;;;6.08;100.00;98286.09;4983567;28;20214;-78
2024/02/28 02:17:09;;;;;;;33.63;17.73;;;5.40;99.90;;;6.12;100.00;98284.84;4983993;28;20494;-78
2024/02/28 02:19:39;;;;;;;30.83;18.20;;;5.40;99.90;;;6.06;100.00;98286.28;4984800;28;20456;-78
2024/02/28 02:22:09;;;;;;;35.67;18.00;;;5.30;99.90;;;6.09;100.00;98290.34;4984898;28;20497;-78
2024/02/28 02:24:39;;;;;;;29.07;16.60;;;5.30;99.90;;;6.12;100.00;98284.84;4983519;28;20463;-77
2024/02/28 02:27:08;;;;;;;30.27;16.67;;;5.30;99.90;;;6.05;100.00;98279.44;4983515;28;20590;-78
2024/02/28 02:29:36;;;;;;;35.83;18.63;;;5.30;99.90;;;6.04;100.00;98280.41;4982969;28;20463;-77
2024/02/28 02:32:05;;;;;;;48.23;18.90;;;5.20;99.90;;;5.92;100.00;98284.22;4984397;28;20716;-78
2024/02/28 02:34:34;;;;;;;33.57;17.47;;;5.10;99.90;;;5.87;100.00;98288.22;4984383;28;20472;-77
2024/02/28 02:37:02;;;;;;;35.85;18.95;;;5.20;99.90;;;5.82;100.00;98285.25;4985231;28;20977;-78
2024/02/28 02:39:30;;;;;;;37.33;18.20;;;5.20;99.90;;;5.89;100.00;98283.72;4984906;28;20228;-78
2024/02/28 02:42:00;;;;;;;32.03;16.58;;;5.20;99.90;;;5.72;100.00;98287.13;4982939;28;20476;-78
2024/02/28 02:44:29;;;;;;;36.13;17.73;;;5.00;99.90;;;5.77;100.00;98290.06;4981485;28;20227;-77
2024/02/28 02:46:57;;;;;;;31.87;17.17;;;5.00;99.90;;;5.71;100.00;98288.91;4983417;28;20507;-78
2024/02/28 02:49:26;;;;;;;38.90;17.67;;;5.00;99.90;;;5.80;100.00;98294.97;4983583;28;20467;-78
2024/02/28 02:51:54;;;;;;;34.30;18.17;;;5.00;99.90;;;5.84;100.00;98288.50;4982865;28;20484;-77
2024/02/28 02:54:22;;;;;;;38.80;18.10;;;5.10;99.90;;;5.73;100.00;98293.94;4981809;28;20539;-78
2024/02/28 02:56:51;;;;;;;36.10;17.27;;;5.00;99.90;;;5.60;100.00;98299.50;4983566;28;20495;-77
2024/02/28 02:59:21;;;;;;;35.00;17.33;;;4.80;99.90;;;5.59;100.00;98300.47;4982539;28;20481;-77
2024/02/28 03:01:51;;;;;;;38.87;18.20;;;4.80;99.90;;;5.59;100.00;98292.69;4982449;28;20520;-77
2024/02/28 03:04:19;;;;;;;35.73;17.57;;;4.80;99.90;;;5.67;100.00;98294.53;4981830;28;20495;-77
2024/02/28 03:06:48;;;;;;;34.87;17.93;;;4.90;99.90;;;5.72;100.00;98297.50;4982940;28;20976;-77
2024/02/28 03:09:16;;;;;;;34.90;17.40;;;4.90;99.90;;;5.63;100.00;98298.38;4983757;28;20474;-77
2024/02/28 03:11:45;;;;;;;35.27;17.20;;;4.80;99.90;;;5.61;100.00;98297.72;4982357;28;20470;-78
2024/02/28 03:14:13;;;;;;;32.87;17.10;;;4.80;99.90;;;5.47;100.00;98305.09;4982529;28;20479;-77
2024/02/28 03:16:44;;;;;;;37.13;18.73;;;4.70;99.90;;;5.46;100.00;98305.22;4983517;28;20473;-78
2024/02/28 03:19:13;;;;;;;39.23;17.70;;;4.80;99.90;;;5.33;100.00;98310.78;4984604;28;20467;-77
2024/02/28 03:21:41;;;;;;;41.17;18.77;;;4.60;99.90;;;5.40;100.00;98314.41;4983007;28;20493;-77
2024/02/28 03:24:10;;;;;;;39.27;17.33;;;4.60;99.90;;;5.38;100.00;98318.91;4982234;28;20491;-78
2024/02/28 03:26:38;;;;;;;37.40;16.60;;;4.70;99.90;;;5.30;100.00;98324.03;4981601;28;20514;-77
2024/02/28 03:29:07;;;;;;;41.63;18.70;;;4.70;99.90;;;5.22;100.00;98331.72;4982102;28;20467;-77
2024/02/28 03:31:35;;;;;;;29.73;15.97;;;4.60;99.90;;;5.23;100.00;98320.41;4982467;28;20464;-77
2024/02/28 03:34:05;;;;;;;34.60;18.13;;;4.70;99.90;;;5.31;100.00;98325.66;4982293;28;20472;-79
2024/02/28 03:36:34;;;;;;;32.10;15.90;;;4.70;99.90;;;5.31;100.00;98332.63;4980987;28;20571;-77
2024/02/28 03:39:02;;;;;;;35.07;16.67;;;4.70;99.90;;;5.24;100.00;98337.56;4982761;28;20826;-78
2024/02/28 03:41:30;;;;;;;32.70;15.82;;;4.60;99.90;;;5.14;100.00;98342.00;4982072;28;20505;-78
2024/02/28 03:43:59;;;;;;;30.27;15.60;;;4.50;99.90;;;5.16;100.00;98353.06;4981872;28;20230;-78
2024/02/28 03:46:27;;;;;;;30.35;15.95;;;4.50;99.90;;;5.14;100.00;98356.75;4981108;28;20450;-78
2024/02/28 03:48:55;;;;;;;34.00;16.13;;;4.60;99.90;;;5.07;100.00;98356.50;4982787;28;20261;-77
2024/02/28 03:51:25;;;;;;;37.60;16.90;;;4.50;99.90;;;5.10;100.00;98358.81;4982120;28;20506;-77
2024/02/28 03:53:55;;;;;;;31.30;15.07;;;4.50;99.90;;;5.05;100.00;98356.66;4982413;28;21304;-78
2024/02/28 03:56:24;;;;;;;36.55;16.85;;;4.30;99.90;;;5.17;100.00;98365.06;4982890;28;20512;-77
2024/02/28 03:58:54;;;;;;;34.77;16.97;;;4.50;99.90;;;5.13;100.00;98370.66;4982298;28;20312;-77
2024/02/28 04:01:22;;;;;;;29.73;15.17;;;4.40;99.90;;;5.13;100.00;98371.50;4982621;28;20477;-77
2024/02/28 04:03:51;;;;;;;33.53;16.87;;;4.40;99.90;;;5.17;100.00;98369.41;4983106;28;20958;-78
2024/02/28 04:06:20;;;;;;;35.30;15.33;;;4.40;99.90;;;5.19;100.00;98368.31;4982930;28;21164;-77
2024/02/28 04:08:49;;;;;;;35.65;15.60;;;4.50;99.90;;;5.25;100.00;98367.72;4983140;28;20588;-78
2024/02/28 04:11:18;;;;;;;35.80;15.23;;;4.50;99.90;;;5.29;100.00;98373.44;4983459;28;20206;-77
2024/02/28 04:13:46;;;;;;;38.93;16.00;;;4.50;99.90;;;5.25;100.00;98380.69;4981599;28;20540;-77
2024/02/28 04:16:15;;;;;;;33.23;16.03;;;4.50;99.90;;;5.15;100.00;98398.06;4982302;28;20845;-77
2024/02/28 04:18:43;;;;;;;35.50;15.70;;;4.40;99.90;;;4.93;100.00;98391.47;4981306;28;20467;-77
2024/02/28 04:21:12;;;;;;;34.23;15.43;;;4.30;99.90;;;4.98;100.00;98391.88;4981589;28;20205;-78
2024/02/28 04:23:41;;;;;;;31.23;14.50;;;4.30;99.90;;;4.97;100.00;98394.59;4980251;28;20475;-78
2024/02/28 04:26:12;;;;;;;30.40;15.60;;;4.30;99.90;;;4.97;100.00;98400.59;4981744;28;20467;-78
2024/02/28 04:28:42;;;;;;;33.03;16.50;;;4.30;99.90;;;4.95;100.00;98401.72;4979846;28;20865;-78
2024/02/28 04:31:10;;;;;;;30.53;15.47;;;4.30;99.90;;;4.95;100.00;98391.34;4983175;28;20475;-78
2024/02/28 04:33:39;;;;;;;26.03;14.10;;;4.30;99.90;;;4.89;100.00;98397.09;4982464;28;20464;-78
2024/02/28 04:36:07;;;;;;;30.60;13.70;;;4.30;99.90;;;4.87;100.00;98393.81;4982266;28;20465;-78
2024/02/28 04:38:36;;;;;;;29.08;13.85;;;4.20;99.90;;;4.80;100.00;98396.16;4982417;28;20476;-78
2024/02/28 04:41:04;;;;;;;26.33;13.83;;;4.20;99.90;;;4.76;100.00;98391.41;4981592;28;20674;-78
2024/02/28 04:43:34;;;;;;;30.10;13.37;;;4.20;99.90;;;4.61;100.00;98395.44;4981020;28;20483;-78
2024/02/28 04:46:04;;;;;;;27.75;14.25;;;4.00;99.90;;;4.65;100.00;98394.19;4982333;28;20470;-78
2024/02/28 04:48:32;;;;;;;22.67;13.03;;;4.00;99.90;;;4.62;100.00;98389.31;4982195;28;20934;-78
2024/02/28 04:51:02;;;;;;;31.07;13.50;;;3.90;99.90;;;4.60;100.00;98388.59;4981377;28;20970;-78
2024/02/28 04:53:30;;;;;;;25.45;12.52;;;3.90;99.90;;;4.59;100.00;98395.56;4982701;28;20861;-78
2024/02/28 04:55:59;;;;;;;27.30;13.80;;;4.00;99.90;;;4.51;100.00;98383.31;4981750;28;20896;-78
2024/02/28 04:58:27;;;;;;;29.85;14.45;;;3.90;99.90;;;4.55;100.00;98395.03;4982521;28;21002;-78
2024/02/28 05:00:57;;;;;;;28.40;12.97;;;3.90;99.90;;;4.53;100.00;98391.78;4980834;28;20210;-78
2024/02/28 05:03:26;;;;;;;27.70;13.97;;;3.90;99.90;;;4.47;100.00;98400.09;4982711;28;20467;-78
2024/02/28 05:05:54;;;;;;;28.63;14.10;;;3.90;99.90;;;4.58;100.00;98405.09;4980643;28;20493;-78
2024/02/28 05:08:23;;;;;;;28.60;13.27;;;3.90;99.90;;;4.57;100.00;98408.66;4981408;28;20704;-78
2024/02/28 05:10:51;;;;;;;31.13;13.10;;;3.90;99.90;;;4.65;100.00;98414.91;4980611;28;20218;-78
2024/02/28 05:13:22;;;;;;;25.87;12.50;;;3.90;99.90;;;4.60;100.00;98422.28;4980762;28;20460;-78
2024/02/28 05:15:50;;;;;;;22.63;12.87;;;4.00;99.90;;;4.57;100.00;98423.38;4981001;28;20552;-78
2024/02/28 05:18:20;;;;;;;27.65;13.15;;;3.90;99.90;;;4.65;100.00;98425.28;4981448;28;20479;-78
2024/02/28 05:20:49;;;;;;;30.33;13.47;;;3.90;99.90;;;4.56;100.00;98426.91;4980567;28;20202;-78
2024/02/28 05:23:17;;;;;;;27.23;14.50;;;3.90;99.90;;;4.46;100.00;98432.13;4981221;28;20529;-78
2024/02/28 05:25:47;;;;;;;26.00;13.30;;;3.80;99.90;;;4.58;100.00;98425.81;4980503;28;20465;-78
2024/02/28 05:28:16;;;;;;;29.13;13.93;;;3.90;99.90;;;4.61;100.00;98429.09;4980080;28;20495;-78
2024/02/28 05:30:44;;;;;;;39.13;13.83;;;4.00;99.90;;;4.60;100.00;98423.09;4980468;28;20526;-78
2024/02/28 05:33:17;;;;;;;29.97;13.50;;;4.00;99.90;;;4.51;100.00;98434.31;4980688;28;20992;-78
2024/02/28 05:35:47;;;;;;;25.90;12.90;;;3.90;99.90;;;4.56;100.00;98434.69;4980516;28;20480;-78
2024/02/28 05:38:16;;;;;;;24.40;12.33;;;3.90;99.90;;;4.45;100.00;98442.59;4980706;28;20545;-78
2024/02/28 05:40:44;;;;;;;28.43;13.23;;;3.80;99.90;;;4.54;100.00;98449.56;4981144;28;21115;-78
2024/02/28 05:43:13;;;;;;;24.50;12.03;;;3.80;99.90;;;4.47;100.00;98449.28;4979280;28;20849;-78
2024/02/28 05:45:41;;;;;;;21.43;12.30;;;3.70;99.90;;;4.44;100.00;98443.56;4980833;28;20465;-78
2024/02/28 05:48:10;;;;;;;25.03;11.63;;;3.80;99.90;;;4.42;100.00;98448.06;4980646;28;20934;-78
2024/02/28 05:50:39;;;;;;;25.47;12.60;;;3.80;99.90;;;4.42;100.00;98451.47;4983710;28;20524;-78
2024/02/28 05:53:08;;;;;;;26.23;12.33;;;3.70;99.90;;;4.34;100.00;98453.91;4984009;28;20801;-79
2024/02/28 05:55:37;;;;;;;20.33;11.30;;;3.60;99.90;;;4.43;100.00;98463.47;4985105;28;20467;-78
2024/02/28 05:58:05;;;;;;;33.30;13.20;;;3.70;99.90;;;4.47;100.00;98457.06;4984254;28;20467;-78
2024/02/28 06:00:35;;;;;;;24.67;11.47;;;3.80;99.90;;;4.41;100.00;98462.78;4984259;28;20476;-78
2024/02/28 06:03:05;;;;;;;28.60;13.07;;;3.80;99.90;;;4.34;100.00;98469.44;4986160;28;20468;-78
2024/02/28 06:05:33;;;;;;;25.83;12.93;;;3.70;99.90;;;4.30;100.00;98468.13;4985327;28;20466;-78
2024/02/28 06:08:02;;;;;;;26.57;12.60;;;3.60;99.90;;;4.21;100.00;98473.28;4985719;28;20546;-78
2024/02/28 06:10:32;;;;;;;25.60;12.33;;;3.70;99.90;;;4.16;100.00;98481.47;4984909;28;20520;-78
2024/02/28 06:13:00;;;;;;;23.87;12.03;;;3.60;99.90;;;4.13;100.00;98478.34;4985033;28;20470;-78
2024/02/28 06:15:29;;;;;;;22.13;11.13;;;3.70;99.90;;;4.10;100.00;98481.97;4984156;28;20470;-78
2024/02/28 06:17:59;;;;;;;24.53;12.47;;;3.50;99.90;;;4.20;100.00;98482.00;4985359;28;20494;-78
2024/02/28 06:20:28;;;;;;;25.10;11.77;;;3.60;99.90;;;4.19;100.00;98480.38;4983824;28;20861;-78
2024/02/28 06:22:57;;;;;;;25.30;12.77;;;3.50;99.90;;;4.15;100.00;98494.53;4977041;28;20466;-78
2024/02/28 06:25:28;;;;;;;25.30;10.97;;;3.50;99.90;;;4.18;100.00;98492.47;4980411;28;21016;-79
2024/02/28 06:27:57;;;;;;;27.73;11.87;;;3.50;99.90;;;4.14;100.00;98503.22;4981357;28;20520;-80
2024/02/28 06:30:26;;;;;;;29.97;14.50;;;3.50;99.90;;;4.05;100.00;98500.53;4980472;28;20472;-78
2024/02/28 06:32:54;;;;;;;25.40;12.70;;;3.50;99.90;;;4.09;100.00;98514.00;4978493;28;20467;-78
2024/02/28 06:35:23;;;;;;;22.13;10.93;;;3.50;99.90;;;4.02;100.00;98510.31;4978775;28;20885;-78
2024/02/28 06:37:51;;;;;;;21.60;11.53;;;3.40;99.90;;;3.98;100.00;98504.59;4984875;28;20209;-78
2024/02/28 06:40:21;;;;;;;20.47;11.20;;;3.40;99.90;;;3.84;100.00;98511.91;4983996;28;20464;-78
2024/02/28 06:42:49;;;;;;;20.40;10.57;;;3.20;99.90;;;3.88;100.00;98514.13;4982946;28;20512;-78
2024/02/28 06:45:19;;;;;;;25.93;10.23;;;3.40;99.90;;;3.71;100.00;98517.34;4983870;28;20498;-78
2024/02/28 06:47:48;;;;;;;20.00;10.60;;;3.20;99.90;;;3.71;100.00;98521.69;4983492;28;20997;-78
2024/02/28 06:50:16;;;;;;;20.60;10.93;;;3.30;99.90;;;3.61;100.00;98528.59;4983209;28;20503;-78
2024/02/28 06:52:45;;;;;;;22.93;11.00;;;3.10;99.90;;;3.63;100.00;98518.94;4983232;28;20477;-78
2024/02/28 06:55:14;;;;;;;21.37;10.90;;;3.00;99.90;;;3.63;100.00;98526.69;4984543;28;20883;-79
2024/02/28 06:57:43;;;;;;;22.63;10.87;;;2.90;99.90;;;3.58;100.00;98527.09;4983930;28;20464;-78
2024/02/28 07:00:14;;;;;;;21.10;10.10;;;2.90;99.90;;;3.74;100.00;98536.94;4984019;28;20950;-78
2024/02/28 07:02:44;;;;;;;21.57;10.53;;;3.00;99.90;;;3.77;100.00;98541.84;4983224;28;20945;-79
2024/02/28 07:05:13;;;;;;;20.43;10.57;;;3.10;99.90;;;3.75;100.00;98538.59;4974535;28;20534;-83
2024/02/28 07:07:42;;;;;;;28.60;12.13;;;3.00;99.90;;;3.77;100.00;98547.03;4981333;28;20479;-79
2024/02/28 07:10:11;;;;;;;24.40;11.30;;;3.10;99.90;;;3.75;100.00;98543.75;4980471;28;20225;-78
2024/02/28 07:12:40;;;;;;;20.67;9.88;;;3.10;99.90;;;3.61;100.00;98544.13;4983010;28;20493;-79
2024/02/28 07:15:09;;;;;;;25.10;11.53;;;3.20;99.90;;;3.74;100.00;98537.75;4983507;28;20210;-79
2024/02/28 07:17:37;;;;;;;23.57;10.00;;;3.20;99.90;;;3.75;100.00;98543.75;4982613;28;20488;-79
2024/02/28 07:20:08;;;;;;;17.73;9.30;;;3.10;99.90;;;3.79;100.00;98548.50;4982873;28;20897;-79
2024/02/28 07:22:37;;;;;;;25.27;10.68;;;3.20;99.90;;;3.71;100.00;98555.31;4984062;28;20463;-78
2024/02/28 07:25:08;;;;;;;19.67;9.73;;;3.10;99.90;;;3.62;100.00;98553.50;4982242;28;20268;-77
2024/02/28 07:27:36;;;;;;;16.25;8.82;;;3.10;99.90;;;3.64;100.00;98556.78;4982434;28;20868;-78
2024/02/28 07:30:06;;;;;;;18.10;9.10;;;3.10;99.90;;;3.66;100.00;98549.69;4980496;28;20225;-78
2024/02/28 07:32:36;;;;;;;18.77;9.50;;;3.10;99.90;;;3.59;100.00;98559.75;4981018;28;20470;-77
2024/02/28 07:35:08;;;;;;;18.33;8.37;;;3.00;99.90;;;3.51;100.00;98565.56;4980380;28;20469;-77
2024/02/28 07:37:37;;;;;;;20.07;10.00;;;2.90;99.90;;;3.55;100.00;98561.78;4982607;28;20541;-78
2024/02/28 07:40:08;;;;;;;23.27;10.43;;;2.90;99.90;;;3.71;100.00;98563.06;4981472;28;21900;-77
2024/02/28 07:42:37;;;;;;;19.30;8.73;;;3.00;99.90;;;3.71;100.00;98557.91;4977849;28;20484;-78
2024/02/28 07:45:08;;;;;;;20.00;10.50;;;3.10;99.90;;;3.78;100.00;98567.59;4979858;28;20475;-78
2024/02/28 07:47:37;;;;;;;19.75;10.23;;;3.10;99.90;;;3.82;100.00;98566.34;4980920;28;20461;-78
2024/02/28 07:50:08;;;;;;;23.20;8.87;;;3.10;99.90;;;3.81;100.00;98569.09;4980564;28;20236;-78
2024/02/28 07:52:37;;;;;;;20.20;9.90;;;3.10;99.90;;;3.76;100.00;98560.88;4979748;28;20851;-78
2024/02/28 07:55:07;;;;;;;21.87;9.97;;;3.10;99.90;;;3.80;100.00;98559.69;4980811;28;20472;-78
2024/02/28 07:57:36;;;;;;;16.70;8.43;;;3.20;99.90;;;3.90;100.00;98556.19;4978897;28;20452;-78
2024/02/28 08:00:05;;;;;;;29.03;14.23;;;3.20;99.90;;;3.96;100.00;98558.22;4979584;28;21498;-83
2024/02/28 08:02:35;;;;;;;22.30;10.93;;;3.30;99.90;;;4.03;100.00;98558.50;4979477;28;20460;-79
2024/02/28 08:05:03;;;;;;;23.30;9.63;;;3.30;99.90;;;3.98;100.00;98558.09;4981245;28;20468;-79
2024/02/28 08:07:33;;;;;;;18.60;8.90;;;3.30;99.90;;;3.82;100.00;98565.53;4981522;28;20479;-78
2024/02/28 08:10:02;;;;;;;17.73;9.20;;;3.30;99.90;;;3.76;100.00;98560.88;4983372;28;20502;-79
2024/02/28 08:12:30;;;;;;;17.90;9.43;;;3.30;99.90;;;3.82;100.00;98565.53;4981753;28;20553;-78
2024/02/28 08:14:59;;;;;;;19.93;9.53;;;3.30;99.90;;;3.83;100.00;98569.75;4981068;28;20968;-78
2024/02/28 08:17:28;;;;;;;16.98;9.00;;;3.20;99.90;;;3.82;100.00;98558.59;4981553;28;20453;-78
2024/02/28 08:19:56;;;;;;;16.03;8.87;;;3.20;99.90;;;3.80;100.00;98554.50;4982370;28;20443;-78
2024/02/28 08:22:25;;;;;;;24.10;10.50;;;3.30;99.90;;;3.91;100.00;98539.72;4982140;28;20477;-78
2024/02/28 08:24:55;;;;;;;16.37;8.60;;;3.30;99.90;;;4.00;100.00;98551.84;4978743;28;20464;-78
2024/02/28 08:27:24;;;;;;;20.37;9.40;;;3.40;99.90;;;4.11;100.00;98550.91;4981887;28;20508;-78
2024/02/28 08:29:52;;;;;;;20.47;9.70;;;3.50;99.90;;;4.04;100.00;98550.63;4979471;28;20502;-79
2024/02/28 08:32:21;;;;;;;19.80;8.73;;;3.40;99.90;;;4.13;100.00;98564.50;4982518;28;20538;-78
2024/02/28 08:34:49;;;;;;;17.00;8.53;;;3.50;99.90;;;4.08;100.00;98574.47;4981483;28;20508;-79
2024/02/28 08:37:18;;;;;;;15.20;7.80;;;3.50;99.90;;;3.99;100.00;98583.03;4981266;28;20868;-79
2024/02/28 08:39:46;;;;;;;20.70;9.65;;;3.40;99.90;;;3.88;100.00;98596.06;4982639;28;20987;-78
2024/02/28 08:42:16;;;;;;;15.75;7.53;;;3.40;99.90;;;3.93;100.00;98586.94;4981731;28;20224;-79
2024/02/28 08:44:47;;;;;;;17.27;8.27;;;3.50;99.90;;;3.99;100.00;98588.22;4981445;28;20207;-79
2024/02/28 08:47:16;;;;;;;17.83;8.90;;;3.50;99.90;;;4.01;100.00;98581.94;4984130;28;20472;-78
2024/02/28 08:49:44;;;;;;;11.90;6.53;;;3.40;99.90;;;4.07;100.00;98580.56;4982658;28;20498;-79
2024/02/28 08:52:13;;;;;;;13.43;6.67;;;3.50;99.90;;;4.04;100.00;98588.63;4982827;28;20478;-78
2024/02/28 08:54:41;;;;;;;17.30;8.38;;;3.40;99.90;;;3.98;100.00;98591.72;4980968;28;20522;-79
2024/02/28 08:57:10;;;;;;;26.17;8.00;;;3.60;99.90;;;4.04;100.00;98593.78;4979594;28;20647;-79
2024/02/28 08:59:40;;;;;;;18.17;7.28;;;3.50;99.90;;;4.11;100.00;98592.31;4980919;28;20510;-79
2024/02/28 09:02:11;;;;;;;17.10;6.75;;;3.50;99.90;;;4.17;100.00;98594.34;4976521;28;20218;-78
2024/02/28 09:04:39;;;;;;;12.37;6.87;;;3.60;99.90;;;4.29;100.00;98590.72;4977245;28;20557;-78
2024/02/28 09:07:08;;;;;;;13.87;7.10;;;3.60;99.90;;;4.27;100.00;98595.19;4978858;28;20800;-79
2024/02/28 09:09:37;;;;;;;14.13;7.47;;;3.70;99.90;;;4.25;100.00;98597.09;4978129;28;20544;-83
2024/02/28 09:12:07;;;;;;;16.47;7.67;;;3.60;99.90;;;4.29;100.00;98598.47;4980861;28;20534;-78
2024/02/28 09:14:35;;;;;;;14.27;8.00;;;3.70;99.90;;;4.28;100.00;98594.25;4977899;28;20485;-79
2024/02/28 09:17:06;;;;;;;16.20;8.00;;;3.70;99.90;;;4.38;100.00;98605.44;4976395;28;20207;-79
2024/02/28 09:19:34;;;;;;;18.13;8.30;;;3.70;99.90;;;4.42;100.00;98601.63;4976940;28;20492;-79
2024/02/28 09:22:03;;;;;;;17.52;7.80;;;3.70;99.90;;;4.30;100.00;98612.25;4980494;28;20461;-79
2024/02/28 09:24:32;;;;;;;18.37;7.00;;;3.80;99.90;;;4.26;100.00;98605.69;4978632;28;20690;-79
2024/02/28 09:27:00;;;;;;;14.30;7.13;;;3.60;99.90;;;4.30;100.00;98596.72;4982084;28;20527;-79
2024/02/28 09:29:28;;;;;;;15.00;8.20;;;3.70;99.90;;;4.42;100.00;98599.03;4984425;28;20464;-79
2024/02/28 09:31:57;;;;;;;15.68;8.25;;;3.80;99.90;;;4.51;100.00;98600.81;4982850;28;21060;-79
2024/02/28 09:34:27;;;;;;;14.73;7.97;;;4.00;99.90;;;4.65;100.00;98601.38;4985054;28;20567;-79
2024/02/28 09:36:56;;;;;;;18.10;8.50;;;4.00;99.90;;;4.68;100.00;98606.28;4986299;28;20216;-79
2024/02/28 09:39:25;;;;;;;15.60;7.80;;;3.90;99.90;;;4.66;100.00;98603.81;4985954;28;20471;-79
2024/02/28 09:41:54;;;;;;;15.77;8.00;;;4.00;99.90;;;4.58;100.00;98609.66;4983888;28;20515;-79
2024/02/28 09:44:24;;;;;;;16.60;8.13;;;4.00;99.90;;;4.65;100.00;98607.34;4984348;28;20805;-79
2024/02/28 09:46:53;;;;;;;11.93;6.67;;;4.00;99.90;;;4.77;100.00;98610.63;4986008;28;20206;-78
2024/02/28 09:49:26;;;;;;;11.40;6.82;;;4.10;99.90;;;4.84;100.00;98609.13;4985382;28;20493;-79
2024/02/28 09:52:00;;;;;;;13.50;7.33;;;4.10;99.90;;;4.93;100.00;98611.72;4984063;28;20324;-79
2024/02/28 09:54:29;;;;;;;12.93;7.30;;;4.20;99.90;;;5.02;100.00;98605.72;4986418;28;20466;-79
2024/02/28 09:56:58;;;;;;;14.53;7.80;;;4.30;99.90;;;5.04;100.00;98602.97;4984870;28;20826;-79
2024/02/28 09:59:27;;;;;;;15.80;7.07;;;4.40;99.90;;;5.13;100.00;98604.75;4983639;28;20564;-79
2024/02/28 10:02:12;;;;;;;12.70;7.10;;;4.40;99.90;;;5.25;100.00;98610.59;4985026;28;20472;-78
2024/02/28 10:04:42;;;;;;;16.03;7.97;;;4.50;99.90;;;5.31;100.00;98610.06;4983828;28;20460;-79
2024/02/28 10:07:15;;;;;;;12.70;6.43;;;4.60;99.90;;;5.37;100.00;98601.69;4983940;28;20632;-79
2024/02/28 10:09:43;;;;;;;10.77;6.87;;;4.60;99.90;;;5.42;100.00;98596.91;4983425;28;20464;-79
2024/02/28 10:12:12;;;;;;;13.68;7.30;;;4.70;99.90;;;5.50;100.00;98607.38;4981955;28;20475;-79
2024/02/28 10:14:41;;;;;;;12.53;7.50;;;4.80;99.90;;;5.50;100.00;98599.59;4981677;28;20193;-79
2024/02/28 10:17:09;;;;;;;13.70;7.20;;;4.70;99.90;;;5.54;100.00;98612.16;4985010;28;20497;-78
2024/02/28 10:19:38;;;;;;;11.60;6.50;;;4.80;99.90;;;5.59;100.00;98609.94;4985523;28;20460;-79
2024/02/28 10:22:08;;;;;;;10.10;6.30;;;4.90;99.90;;;5.64;100.00;98616.50;4984539;28;20474;-79